^^

Nearby METAR Reports

 

EGAC - Belfast Harbour, United Kingdom
Distance from station: W 8mi, 13km
Updated: 09/12/2019 12:50
Clear
Clear
 Wind from W
Wind: W 9 mph , 15 km/h
Temperature: 8°C
Wind Chill: 5°C
Dew Point: 3°C
Humidity: 71%
Barometer: 1018 hPa
Clouds: Clear
Visibility: 6 miles , 10 km
2019/12/09 12:50 EGAC 091250Z AUTO 28008KT 250V310 9999 NCD 08/03 Q1018
EGAA - Belfast/Aldergro, United Kingdom
Distance from station: W 22mi, 35km
Updated: 09/12/2019 12:50
Few Clouds
Few Clouds
 Wind from WNW
Wind: WNW 10 mph , 17 km/h
Temperature: 7°C
Wind Chill: 4°C
Dew Point: 4°C
Humidity: 81%
Barometer: 1018 hPa
Clouds: Few Clouds
Visibility: 6 miles , 10 km
Cloud details: Few Clouds 945 m
2019/12/09 12:50 EGAA 091250Z 29009KT 9999 FEW031 07/04 Q1018
 
EGNS - Isle Of Man/Rona, United Kingdom
Distance from station: SE 57mi, 91km
Updated: 09/12/2019 12:50
Few Clouds
Few Clouds
 Wind from NW
Wind: NW 14 mph , 22 km/h
Temperature: 8°C
Wind Chill: 4°C
Dew Point: 4°C
Humidity: 76%
Barometer: 1017 hPa
Clouds: Few Clouds
Visibility: 6 miles , 10 km
Cloud details: Few Clouds 762 m
2019/12/09 12:50 EGNS 091250Z 31012KT 270V360 9999 FEW025 08/04 Q1017 NOSIG
EGPK - Prestwick(Civ/Na, United Kingdom
Distance from station: NE 74mi, 119km
Updated: 09/12/2019 12:50
Few Clouds
Few Clouds
 Wind from WNW
Wind: WNW 16 mph , 26 km/h
Temperature: 7°C
Wind Chill: 3°C
Dew Point: 1°C
Humidity: 66%
Barometer: 1016 hPa
Clouds: Few Clouds
Visibility: 6 miles , 10 km
Cloud details: Few Clouds 1067 m
2019/12/09 12:50 EGPK 091250Z 30014KT 9999 FEW035 07/01 Q1016
 
EIDW - Dublin Airport, Ireland
Distance from station: SSW 87mi, 141km
Updated: 09/12/2019 13:00
Few Clouds
Few Clouds
 Wind from W
Wind: W 15 mph , 24 km/h
Temperature: 8°C
Wind Chill: 4°C
Dew Point: 3°C
Humidity: 71%
Barometer: 1020 hPa
Clouds: Few Clouds
Visibility: 6 miles , 10 km
Cloud details: Few Clouds 427 m
2019/12/09 13:00 EIDW 091300Z 28013KT 9999 FEW014 08/03 Q1020 NOSIG
EGPF - Glasgow Airport, United Kingdom
Distance from station: NNE 98mi, 158km
Updated: 09/12/2019 12:50
Clear
Clear
 Wind from SW
Wind: SW 8 mph , 13 km/h
Temperature: 6°C
Wind Chill: 3°C
Dew Point: 1°C
Humidity: 71%
Barometer: 1015 hPa
Clouds: Clear
Visibility: 6 miles , 10 km
2019/12/09 12:50 EGPF 091250Z AUTO 22007KT 200V260 9999 NCD 06/01 Q1015